CheckWX is a tool to help pilots better visualize weather data.  It is not intended as a substitute for an official pre-flight weather briefing.

01:53:02 UTC

KCON TAF
Concord Municipal Airport
Concord, New Hampshire, USA
KCON 182320Z 1900/1924 VRB04KT P6SM BKN060 FM191500 29007KT P6SM BKN100

Mar-19@
00:00 UTC

Mar-19 @ 00:00 UTC

Mar-19@
15:00 UTC

Mar-19 @ 15:00 UTC

KCON 182320Z 1900/1924 VRB04KT P6SM BKN060
Wind
  • Variable at 4 KTS
Cloud Levels
  • Broken at 6,000' AGL

Mar-19@
15:00 UTC

Mar-19 @ 15:00 UTC

Mar-20@
00:00 UTC

Mar-20 @ 00:00 UTC

FM191500 29007KT P6SM BKN100

From

From Standard forecast or significant change

Wind
  • 290° at 7 KTS
Cloud Levels
  • Broken at 10,000' AGL